createdAt,value
2023-03-21T00:01:52.280Z,60.84
2023-03-21T00:04:20.984Z,60.20
2023-03-21T00:06:48.952Z,60.54
2023-03-21T00:09:16.563Z,59.94
2023-03-21T00:11:44.328Z,59.20
2023-03-21T00:14:14.562Z,58.28
2023-03-21T00:16:45.856Z,57.54
2023-03-21T00:19:14.562Z,58.60
2023-03-21T00:22:05.810Z,58.65
2023-03-21T00:24:30.917Z,57.84
2023-03-21T00:27:15.897Z,57.82
2023-03-21T00:29:46.792Z,58.07
2023-03-21T00:32:14.229Z,59.14
2023-03-21T00:34:59.600Z,57.95
2023-03-21T00:37:30.139Z,57.48
2023-03-21T00:39:57.529Z,58.97
2023-03-21T00:42:25.044Z,58.65
2023-03-21T00:44:52.643Z,59.27
2023-03-21T00:47:20.645Z,59.26
2023-03-21T00:49:50.311Z,59.07
2023-03-21T00:52:27.551Z,57.96
2023-03-21T00:55:02.265Z,57.36
2023-03-21T00:57:38.698Z,59.79
2023-03-21T01:00:10.664Z,60.64
2023-03-21T01:02:38.721Z,60.17
2023-03-21T01:05:06.510Z,60.98
2023-03-21T01:07:33.865Z,62.38
2023-03-21T01:10:01.500Z,59.10
2023-03-21T01:12:28.883Z,60.83
2023-03-21T01:14:57.674Z,59.37
2023-03-21T01:17:25.281Z,59.18
2023-03-21T01:19:52.724Z,61.75
2023-03-21T01:22:20.189Z,62.23
2023-03-21T01:24:55.584Z,62.74
2023-03-21T01:27:27.936Z,61.63
2023-03-21T01:29:55.807Z,61.81
2023-03-21T01:32:23.392Z,59.86
2023-03-21T01:34:50.960Z,59.00
2023-03-21T01:37:19.994Z,57.74
2023-03-21T01:39:47.920Z,58.55
2023-03-21T01:42:15.556Z,59.19
2023-03-21T01:44:57.244Z,58.25
2023-03-21T01:47:25.786Z,59.54
2023-03-21T01:49:56.668Z,60.57
2023-03-21T01:52:36.376Z,59.50
2023-03-21T01:55:07.089Z,58.71
2023-03-21T01:57:51.867Z,57.68
2023-03-21T02:00:25.053Z,59.55
2023-03-21T02:03:06.099Z,58.96
2023-03-21T02:05:44.439Z,60.28
2023-03-21T02:08:13.278Z,60.34
2023-03-21T02:10:42.799Z,59.54
2023-03-21T02:13:11.597Z,59.67
2023-03-21T02:15:41.355Z,61.32
2023-03-21T02:18:44.272Z,59.64
2023-03-21T02:21:33.389Z,62.15
2023-03-21T02:24:20.942Z,62.16
2023-03-21T02:27:04.726Z,61.81
2023-03-21T02:29:54.421Z,60.72
2023-03-21T02:32:41.515Z,62.48
2023-03-21T02:35:12.133Z,62.54
2023-03-21T02:37:51.975Z,60.91
2023-03-21T02:40:40.031Z,61.50
2023-03-21T02:43:22.560Z,61.32
2023-03-21T02:45:53.906Z,61.06
2023-03-21T02:48:50.242Z,60.58
2023-03-21T02:51:22.175Z,61.05
2023-03-21T02:54:16.179Z,60.07
2023-03-21T02:56:40.470Z,61.29
2023-03-21T02:59:08.122Z,61.93
2023-03-21T03:01:35.749Z,60.46
2023-03-21T03:04:03.540Z,62.88
2023-03-21T03:07:09.539Z,60.19
2023-03-21T03:10:13.296Z,60.07
2023-03-21T03:12:54.441Z,59.97
2023-03-21T03:15:41.866Z,60.36
2023-03-21T03:18:31.330Z,60.85
2023-03-21T03:21:08.679Z,59.49
2023-03-21T03:23:48.997Z,59.35
2023-03-21T03:26:27.065Z,59.39
2023-03-21T03:28:58.940Z,58.50
2023-03-21T03:32:03.741Z,57.99
2023-03-21T03:34:34.480Z,58.06
2023-03-21T03:37:04.543Z,58.62
2023-03-21T03:39:36.217Z,59.49
2023-03-21T03:42:28.714Z,59.30
2023-03-21T03:44:57.033Z,57.54
2023-03-21T03:47:56.052Z,57.21
2023-03-21T03:51:01.314Z,58.50
2023-03-21T03:53:32.586Z,59.00
2023-03-21T03:56:00.212Z,59.34
2023-03-21T03:58:39.777Z,59.17
2023-03-21T04:01:14.014Z,58.63
2023-03-21T04:03:49.847Z,58.30
2023-03-21T04:06:18.996Z,59.07
2023-03-21T04:08:47.160Z,58.99
2023-03-21T04:11:15.940Z,60.03
2023-03-21T04:13:45.397Z,58.28
2023-03-21T04:16:14.280Z,60.06
2023-03-21T04:18:42.437Z,59.42
2023-03-21T04:21:10.840Z,61.47
2023-03-21T04:23:39.236Z,61.36
2023-03-21T04:26:06.632Z,60.84
2023-03-21T04:28:36.134Z,58.81
2023-03-21T04:31:16.146Z,58.85
2023-03-21T04:33:52.026Z,59.49
2023-03-21T04:36:28.719Z,60.83
2023-03-21T04:39:00.797Z,59.50
2023-03-21T04:41:28.862Z,59.43
2023-03-21T04:43:57.399Z,60.14
2023-03-21T04:46:24.791Z,58.89
2023-03-21T04:48:52.401Z,60.01
2023-03-21T04:51:19.949Z,62.28
2023-03-21T04:53:49.381Z,61.11
2023-03-21T04:56:17.080Z,63.44
2023-03-21T04:58:45.366Z,60.82
2023-03-21T05:01:14.618Z,62.40
2023-03-21T05:03:42.494Z,61.76
2023-03-21T05:06:10.271Z,61.11
2023-03-21T05:08:37.712Z,59.17
2023-03-21T05:11:05.599Z,59.32
2023-03-21T05:13:33.199Z,60.45
2023-03-21T05:16:00.582Z,60.77
2023-03-21T05:18:28.433Z,59.76
2023-03-21T05:20:56.891Z,60.11
2023-03-21T05:23:24.366Z,59.52
2023-03-21T05:25:52.611Z,59.44
2023-03-21T05:28:20.972Z,58.67
2023-03-21T05:30:49.040Z,59.62
2023-03-21T05:33:17.051Z,59.66
2023-03-21T05:35:44.610Z,58.31
2023-03-21T05:38:12.614Z,58.26
2023-03-21T05:40:48.429Z,60.00
2023-03-21T05:43:15.799Z,59.30
2023-03-21T05:45:43.443Z,59.82
2023-03-21T05:48:11.518Z,58.91
2023-03-21T05:50:42.248Z,58.42
2023-03-21T05:53:10.623Z,58.92
2023-03-21T05:55:39.176Z,58.36
2023-03-21T05:58:08.035Z,58.25
2023-03-21T06:00:35.576Z,57.94
2023-03-21T06:03:04.394Z,57.98
2023-03-21T06:05:32.791Z,58.38
2023-03-21T06:08:00.298Z,58.05
2023-03-21T06:10:28.051Z,56.89
2023-03-21T06:12:55.487Z,55.84
2023-03-21T06:15:23.563Z,56.52
2023-03-21T06:17:51.618Z,57.52
2023-03-21T06:20:19.084Z,55.90
2023-03-21T06:22:46.675Z,55.05
2023-03-21T06:25:14.371Z,55.44
2023-03-21T06:27:41.795Z,54.80
2023-03-21T06:30:09.738Z,54.11
2023-03-21T06:32:37.783Z,54.89
2023-03-21T06:35:07.383Z,53.53
2023-03-21T06:37:34.840Z,55.77
2023-03-21T06:40:04.602Z,53.49
2023-03-21T06:42:32.642Z,53.60
2023-03-21T06:45:00.451Z,54.54
2023-03-21T06:47:28.316Z,55.50
2023-03-21T06:49:56.158Z,54.60
2023-03-21T06:52:23.560Z,55.93
2023-03-21T06:54:53.594Z,56.16
2023-03-21T06:57:21.996Z,57.53
2023-03-21T06:59:49.747Z,56.44
2023-03-21T07:02:18.354Z,56.30
2023-03-21T07:04:46.089Z,56.96
2023-03-21T07:07:14.190Z,56.45
2023-03-21T07:09:42.213Z,57.25
2023-03-21T07:12:10.571Z,57.18
2023-03-21T07:14:40.575Z,56.48
2023-03-21T07:17:08.276Z,57.32
2023-03-21T07:19:35.684Z,56.44
2023-03-21T07:22:03.041Z,55.93
2023-03-21T07:24:30.660Z,55.57
2023-03-21T07:26:58.044Z,56.28
2023-03-21T07:29:26.570Z,56.32
2023-03-21T07:31:54.268Z,56.44
2023-03-21T07:34:22.828Z,56.23
2023-03-21T07:36:51.005Z,55.84
2023-03-21T07:39:20.525Z,56.14
2023-03-21T07:41:47.990Z,56.14
2023-03-21T07:44:18.289Z,55.42
2023-03-21T07:46:45.922Z,54.43
2023-03-21T07:49:13.293Z,55.50
2023-03-21T07:51:40.815Z,54.11
2023-03-21T07:54:08.479Z,53.37
2023-03-21T07:56:36.397Z,53.16
2023-03-21T07:59:05.364Z,52.00
2023-03-21T08:01:33.079Z,52.41
2023-03-21T08:04:00.685Z,53.18
2023-03-21T08:06:28.539Z,52.90
2023-03-21T08:08:55.996Z,52.17
2023-03-21T08:11:24.651Z,52.21
2023-03-21T08:13:52.013Z,52.26
2023-03-21T08:16:19.574Z,51.54
2023-03-21T08:18:47.321Z,51.88
2023-03-21T08:21:14.679Z,51.53
2023-03-21T08:23:42.161Z,50.84
2023-03-21T08:26:10.396Z,51.24
2023-03-21T08:28:39.625Z,51.38
2023-03-21T08:31:08.869Z,50.98
2023-03-21T08:33:37.176Z,50.67
2023-03-21T08:36:05.391Z,51.44
2023-03-21T08:38:33.598Z,50.21
2023-03-21T08:41:01.351Z,50.73
2023-03-21T08:43:29.123Z,50.61
2023-03-21T08:45:56.628Z,49.51
2023-03-21T08:48:24.592Z,48.71
2023-03-21T08:50:51.989Z,48.27
2023-03-21T08:53:19.374Z,49.14
2023-03-21T08:55:47.057Z,49.07
2023-03-21T08:58:14.453Z,48.73
2023-03-21T09:00:41.845Z,48.94
2023-03-21T09:03:11.621Z,48.23
2023-03-21T09:05:39.492Z,47.98
2023-03-21T09:08:07.254Z,48.19
2023-03-21T09:10:34.854Z,49.32
2023-03-21T09:13:02.217Z,48.67
2023-03-21T09:15:29.800Z,48.41
2023-03-21T09:17:58.862Z,50.68
2023-03-21T09:20:31.037Z,50.56
2023-03-21T09:22:59.208Z,51.52
2023-03-21T09:25:31.290Z,50.14
2023-03-21T09:28:00.577Z,50.13
2023-03-21T09:30:29.504Z,50.23
2023-03-21T09:32:56.970Z,49.78
2023-03-21T09:35:24.869Z,49.54
2023-03-21T09:37:52.585Z,48.83
2023-03-21T09:40:43.004Z,48.98
2023-03-21T09:43:35.845Z,47.64
2023-03-21T09:46:09.161Z,46.20
2023-03-21T09:48:56.102Z,46.14
2023-03-21T09:51:26.190Z,47.38
2023-03-21T09:53:56.556Z,46.36
2023-03-21T09:56:26.045Z,47.41
2023-03-21T09:58:56.021Z,46.02
2023-03-21T10:01:30.058Z,46.00
2023-03-21T10:04:01.095Z,46.05
2023-03-21T10:06:30.383Z,45.27
2023-03-21T10:09:09.734Z,44.03
2023-03-21T10:11:44.284Z,45.31
2023-03-21T10:14:21.771Z,44.35
2023-03-21T10:16:56.730Z,45.40
2023-03-21T10:19:24.395Z,45.39
2023-03-21T10:22:00.739Z,43.93
2023-03-21T10:24:29.805Z,44.33
2023-03-21T10:26:57.208Z,43.52
2023-03-21T10:29:27.668Z,44.11
2023-03-21T10:31:55.818Z,42.71
2023-03-21T10:34:36.729Z,43.30
2023-03-21T10:37:04.521Z,42.36
2023-03-21T10:39:38.667Z,42.84
2023-03-21T10:42:06.741Z,42.03
2023-03-21T10:44:35.166Z,41.19
2023-03-21T10:47:07.226Z,42.60
2023-03-21T10:49:56.345Z,43.12
2023-03-21T10:52:27.483Z,43.22
2023-03-21T10:55:24.320Z,41.97
2023-03-21T10:57:54.015Z,41.04
2023-03-21T11:00:23.117Z,40.04
2023-03-21T11:02:51.383Z,39.59
2023-03-21T11:05:23.231Z,40.16
2023-03-21T11:08:01.409Z,39.51
2023-03-21T11:10:38.064Z,39.15
2023-03-21T11:13:08.190Z,39.24
2023-03-21T11:15:49.055Z,40.31
2023-03-21T11:18:22.275Z,38.08
2023-03-21T11:20:52.493Z,39.29
2023-03-21T11:23:20.938Z,40.31
2023-03-21T11:25:51.688Z,40.14
2023-03-21T11:28:23.484Z,39.54
2023-03-21T11:30:56.540Z,40.61
2023-03-21T11:33:33.440Z,39.60
2023-03-21T11:36:24.534Z,37.58
2023-03-21T11:39:01.119Z,38.75
2023-03-21T11:41:30.632Z,38.54
2023-03-21T11:43:58.442Z,38.45
2023-03-21T11:46:30.848Z,38.29
2023-03-21T11:48:58.902Z,37.72
2023-03-21T11:51:44.436Z,36.92
2023-03-21T11:54:17.913Z,37.97
2023-03-21T11:56:52.067Z,37.25
2023-03-21T11:59:58.151Z,35.55
2023-03-21T12:02:51.586Z,35.00
2023-03-21T12:05:21.845Z,34.86
2023-03-21T12:07:52.237Z,35.23
2023-03-21T12:10:58.071Z,35.87
2023-03-21T12:13:49.192Z,35.73
2023-03-21T12:16:57.707Z,37.05
2023-03-21T12:19:40.359Z,37.13
2023-03-21T12:22:17.708Z,37.34
2023-03-21T12:24:56.179Z,38.33
2023-03-21T12:27:51.303Z,38.55
2023-03-21T12:30:32.401Z,39.63
2023-03-21T12:33:18.281Z,38.69
2023-03-21T12:35:59.797Z,37.57
2023-03-21T12:38:40.696Z,38.64
2023-03-21T12:41:23.522Z,38.62
2023-03-21T12:43:52.805Z,39.23
2023-03-21T12:46:26.816Z,39.67
2023-03-21T12:49:03.034Z,39.17
2023-03-21T12:51:33.996Z,38.38
2023-03-21T12:54:06.358Z,37.50
2023-03-21T12:56:55.331Z,37.06
2023-03-21T12:59:42.345Z,36.49
2023-03-21T13:02:32.275Z,37.23
2023-03-21T13:05:05.995Z,38.11
2023-03-21T13:07:35.137Z,37.25
2023-03-21T13:10:04.781Z,38.31
2023-03-21T13:12:43.310Z,37.22
2023-03-21T13:15:30.892Z,36.86
2023-03-21T13:18:37.518Z,36.99
2023-03-21T13:21:25.942Z,37.21
2023-03-21T13:24:18.409Z,37.50
2023-03-21T13:26:50.046Z,36.86
2023-03-21T13:29:29.663Z,36.85
2023-03-21T13:32:05.812Z,37.06
2023-03-21T13:34:33.216Z,36.57
2023-03-21T13:37:00.824Z,36.21
2023-03-21T13:39:28.773Z,37.12
2023-03-21T13:41:56.575Z,36.49
2023-03-21T13:44:32.049Z,36.13
2023-03-21T13:47:04.356Z,36.29
2023-03-21T13:49:36.070Z,36.08
2023-03-21T13:52:27.486Z,36.96
2023-03-21T13:54:56.241Z,35.37
2023-03-21T13:57:30.479Z,35.68
2023-03-21T14:00:15.543Z,35.06
2023-03-21T14:03:08.532Z,33.48
2023-03-21T14:05:37.603Z,33.23
2023-03-21T14:08:15.752Z,33.46
2023-03-21T14:10:49.046Z,32.78
2023-03-21T14:13:19.480Z,34.42
2023-03-21T14:15:55.929Z,34.73
2023-03-21T14:18:35.296Z,34.87
2023-03-21T14:21:23.707Z,35.29
2023-03-21T14:24:05.148Z,35.51
2023-03-21T14:26:37.823Z,34.42
2023-03-21T14:29:09.619Z,34.35
2023-03-21T14:31:43.004Z,33.42
2023-03-21T14:34:10.654Z,34.17
2023-03-21T14:36:38.987Z,34.97
2023-03-21T14:39:31.491Z,35.80
2023-03-21T14:42:13.676Z,35.84
2023-03-21T14:44:54.519Z,34.84
2023-03-21T14:47:27.810Z,35.99
2023-03-21T14:49:56.389Z,36.58
2023-03-21T14:52:26.017Z,36.67
2023-03-21T14:54:53.506Z,35.71
2023-03-21T14:57:22.981Z,35.89
2023-03-21T14:59:51.995Z,35.45
2023-03-21T15:02:32.978Z,36.19
2023-03-21T15:05:21.990Z,35.88
2023-03-21T15:07:56.838Z,35.28
2023-03-21T15:10:25.267Z,35.10
2023-03-21T15:13:03.274Z,35.29
2023-03-21T15:15:31.272Z,35.26
2023-03-21T15:18:02.994Z,34.05
2023-03-21T15:20:40.056Z,34.40
2023-03-21T15:23:12.763Z,34.83
2023-03-21T15:25:40.834Z,35.48
2023-03-21T15:28:08.420Z,36.50
2023-03-21T15:30:36.037Z,36.86
2023-03-21T15:33:09.239Z,36.99
2023-03-21T15:35:41.528Z,36.84
2023-03-21T15:38:22.396Z,37.83
2023-03-21T15:40:49.758Z,37.43
2023-03-21T15:43:18.723Z,38.12
2023-03-21T15:45:55.761Z,37.27
2023-03-21T15:48:27.881Z,37.87
2023-03-21T15:50:55.129Z,38.84
2023-03-21T15:53:23.374Z,39.19
2023-03-21T15:55:57.004Z,38.24
2023-03-21T15:58:36.053Z,39.03
2023-03-21T16:01:08.536Z,38.20
2023-03-21T16:03:37.244Z,39.10
2023-03-21T16:06:16.619Z,38.93
2023-03-21T16:08:50.147Z,38.51
2023-03-21T16:11:25.645Z,37.83
2023-03-21T16:13:53.494Z,39.47
2023-03-21T16:16:28.332Z,37.51
2023-03-21T16:18:56.709Z,38.12
2023-03-21T16:21:26.512Z,38.44
2023-03-21T16:23:53.910Z,38.83
2023-03-21T16:26:23.334Z,37.88
2023-03-21T16:28:50.903Z,39.34
2023-03-21T16:31:20.884Z,39.56
2023-03-21T16:33:48.850Z,39.05
2023-03-21T16:36:24.191Z,39.98
2023-03-21T16:38:52.759Z,38.92
2023-03-21T16:41:20.367Z,38.53
2023-03-21T16:43:47.854Z,39.66
2023-03-21T16:46:25.417Z,38.62
2023-03-21T16:48:57.990Z,39.54
2023-03-21T16:51:33.340Z,40.17
2023-03-21T16:54:00.970Z,40.44
2023-03-21T16:56:37.525Z,40.02
2023-03-21T16:59:05.992Z,40.98
2023-03-21T17:01:35.921Z,40.21
2023-03-21T17:04:03.364Z,39.60
2023-03-21T17:06:31.003Z,41.07
2023-03-21T17:08:58.835Z,41.01
2023-03-21T17:11:26.769Z,40.94
2023-03-21T17:13:54.574Z,41.20
2023-03-21T17:16:26.576Z,41.11
2023-03-21T17:18:54.514Z,41.09
2023-03-21T17:21:26.570Z,41.78
2023-03-21T17:23:53.944Z,41.21
2023-03-21T17:26:23.508Z,40.92
2023-03-21T17:28:55.248Z,40.68
2023-03-21T17:31:24.039Z,40.43
2023-03-21T17:33:51.427Z,40.69
2023-03-21T17:36:27.045Z,40.79
2023-03-21T17:38:55.429Z,40.80
2023-03-21T17:41:22.825Z,41.00
2023-03-21T17:43:51.617Z,41.42
2023-03-21T17:46:21.120Z,42.21
2023-03-21T17:48:48.670Z,42.55
2023-03-21T17:51:17.115Z,43.06
2023-03-21T17:53:45.502Z,42.89
2023-03-21T17:56:16.742Z,43.33
2023-03-21T17:58:44.104Z,43.46
2023-03-21T18:01:11.824Z,43.38
2023-03-21T18:03:39.437Z,43.13
2023-03-21T18:06:07.118Z,42.29
2023-03-21T18:08:34.477Z,43.62
2023-03-21T18:11:02.138Z,42.94
2023-03-21T18:13:29.495Z,43.68
2023-03-21T18:15:56.941Z,43.44
2023-03-21T18:18:27.134Z,42.85
2023-03-21T18:20:57.540Z,43.17
2023-03-21T18:23:25.466Z,43.36
2023-03-21T18:25:53.065Z,43.27
2023-03-21T18:28:21.384Z,43.56
2023-03-21T18:31:07.418Z,43.57
2023-03-21T18:33:40.353Z,43.88
2023-03-21T18:36:09.247Z,43.74
2023-03-21T18:38:37.082Z,43.87
2023-03-21T18:41:05.531Z,44.08
2023-03-21T18:46:21.110Z,43.27
2023-03-21T18:48:49.212Z,44.25
2023-03-21T18:51:17.772Z,44.04
2023-03-21T18:53:45.757Z,43.90
2023-03-21T18:56:36.898Z,44.51
2023-03-21T18:59:01.884Z,43.90
2023-03-21T19:01:29.794Z,44.63
2023-03-21T19:04:20.467Z,44.60
2023-03-21T19:06:47.879Z,44.74
2023-03-21T19:09:15.252Z,44.48
2023-03-21T19:11:42.865Z,44.46
2023-03-21T19:14:11.616Z,44.36
2023-03-21T19:17:02.099Z,44.48
2023-03-21T19:19:26.998Z,44.86
2023-03-21T19:21:54.496Z,45.03
2023-03-21T19:24:27.613Z,45.53
2023-03-21T19:26:56.464Z,46.40
2023-03-21T19:29:23.878Z,45.96
2023-03-21T19:31:51.613Z,46.00
2023-03-21T19:34:19.520Z,45.92
2023-03-21T19:36:51.509Z,45.53
2023-03-21T19:39:22.611Z,46.09
2023-03-21T19:41:50.980Z,45.74
2023-03-21T19:44:19.170Z,46.07
2023-03-21T19:46:48.411Z,46.10
2023-03-21T19:49:20.123Z,46.05
2023-03-21T19:51:47.977Z,45.82
2023-03-21T19:54:17.371Z,45.79
2023-03-21T19:56:47.559Z,45.88
2023-03-21T19:59:15.848Z,45.58
2023-03-21T20:01:44.264Z,45.99
2023-03-21T20:04:12.233Z,46.26
2023-03-21T20:06:39.675Z,46.04
2023-03-21T20:11:57.731Z,46.16
2023-03-21T20:14:25.272Z,46.15
2023-03-21T20:16:55.307Z,46.29
2023-03-21T20:19:23.156Z,46.63
2023-03-21T20:21:58.014Z,46.55
2023-03-21T20:24:27.479Z,46.69
2023-03-21T20:26:55.624Z,46.75
2023-03-21T20:32:11.557Z,46.93
2023-03-21T20:34:39.355Z,47.04
2023-03-21T20:37:07.102Z,46.81
2023-03-21T20:39:34.807Z,46.79
2023-03-21T20:42:02.500Z,47.11
2023-03-21T20:44:57.963Z,47.13
2023-03-21T20:47:17.572Z,47.10
2023-03-21T20:49:45.282Z,47.05
2023-03-21T20:52:52.117Z,46.59
2023-03-21T20:55:00.308Z,47.36
2023-03-21T20:57:27.748Z,46.91
2023-03-21T20:59:55.177Z,47.20
2023-03-21T21:02:23.042Z,46.90
2023-03-21T21:05:17.720Z,46.80
2023-03-21T21:07:43.177Z,46.83
2023-03-21T21:10:11.875Z,47.05
2023-03-21T21:12:39.545Z,47.28
2023-03-21T21:15:08.196Z,47.25
2023-03-21T21:18:02.029Z,48.16
2023-03-21T21:20:23.224Z,47.67
2023-03-21T21:23:00.557Z,47.96
2023-03-21T21:25:29.376Z,48.58
2023-03-21T21:27:56.784Z,48.91
2023-03-21T21:30:24.173Z,49.36
2023-03-21T21:32:51.831Z,49.29
2023-03-21T21:35:20.589Z,49.49
2023-03-21T21:37:48.854Z,50.32
2023-03-21T21:40:20.402Z,49.89
2023-03-21T21:42:47.966Z,49.90
2023-03-21T21:45:15.943Z,50.39
2023-03-21T21:47:43.926Z,50.32
2023-03-21T21:50:11.417Z,50.29
2023-03-21T21:52:39.042Z,50.84
2023-03-21T21:55:06.733Z,51.10
2023-03-21T21:57:34.587Z,51.54
2023-03-21T22:00:06.502Z,50.63
2023-03-21T22:02:39.754Z,52.08
2023-03-21T22:05:08.808Z,50.56
2023-03-21T22:07:37.515Z,50.12
2023-03-21T22:10:05.397Z,50.44
2023-03-21T22:12:33.024Z,49.80
2023-03-21T22:15:00.489Z,49.18
2023-03-21T22:17:27.853Z,49.68
2023-03-21T22:20:05.097Z,50.06
2023-03-21T22:22:34.038Z,51.54
2023-03-21T22:25:02.113Z,50.31
2023-03-21T22:27:29.501Z,49.45
2023-03-21T22:29:56.890Z,49.47
2023-03-21T22:32:24.611Z,49.77
2023-03-21T22:34:51.957Z,49.79
2023-03-21T22:37:19.308Z,49.22
2023-03-21T22:39:46.966Z,49.04
2023-03-21T22:42:14.308Z,49.12
2023-03-21T22:44:41.663Z,48.80
2023-03-21T22:47:09.961Z,48.61
2023-03-21T22:49:37.952Z,49.13
2023-03-21T22:52:06.028Z,49.17
2023-03-21T22:54:33.660Z,49.22
2023-03-21T22:57:01.050Z,50.25
2023-03-21T22:59:28.638Z,49.53
2023-03-21T23:01:56.721Z,49.56
2023-03-21T23:04:25.056Z,49.51
2023-03-21T23:06:52.487Z,49.58
2023-03-21T23:09:20.482Z,49.80
2023-03-21T23:11:49.573Z,50.94
2023-03-21T23:14:17.488Z,50.61
2023-03-21T23:16:45.174Z,52.77
2023-03-21T23:19:12.510Z,51.43
2023-03-21T23:21:39.909Z,50.91
2023-03-21T23:24:07.938Z,50.88
2023-03-21T23:26:35.277Z,51.35
2023-03-21T23:29:03.875Z,51.35
2023-03-21T23:31:33.047Z,50.58
2023-03-21T23:34:00.640Z,51.00
2023-03-21T23:36:28.154Z,50.79
2023-03-21T23:38:55.761Z,51.22
2023-03-21T23:41:26.010Z,50.97
2023-03-21T23:43:53.455Z,51.00
2023-03-21T23:46:21.135Z,51.19
2023-03-21T23:48:48.619Z,51.07
2023-03-21T23:51:16.524Z,50.90
2023-03-21T23:53:45.246Z,50.80
2023-03-21T23:56:17.579Z,50.81
2023-03-21T23:58:45.590Z,50.58
